createdAt,value
2022-11-27T00:01:35.750Z,16.98
2022-11-27T00:04:04.237Z,18.30
2022-11-27T00:06:33.596Z,17.83
2022-11-27T00:09:04.898Z,18.73
2022-11-27T00:11:34.199Z,18.45
2022-11-27T00:14:03.987Z,19.05
2022-11-27T00:16:32.768Z,18.33
2022-11-27T00:19:01.174Z,18.23
2022-11-27T00:21:32.351Z,17.92
2022-11-27T00:24:03.230Z,18.88
2022-11-27T00:26:37.494Z,18.15
2022-11-27T00:29:09.033Z,19.13
2022-11-27T00:31:38.592Z,17.65
2022-11-27T00:34:09.452Z,18.20
2022-11-27T00:36:38.580Z,19.27
2022-11-27T00:39:07.323Z,19.42
2022-11-27T00:41:35.968Z,19.55
2022-11-27T00:44:04.681Z,18.00
2022-11-27T00:46:35.590Z,17.10
2022-11-27T00:49:06.658Z,18.45
2022-11-27T00:51:35.146Z,18.23
2022-11-27T00:54:03.435Z,18.88
2022-11-27T00:56:34.556Z,18.15
2022-11-27T00:59:03.563Z,18.88
2022-11-27T01:01:35.806Z,18.90
2022-11-27T01:04:08.525Z,19.05
2022-11-27T01:06:37.020Z,18.05
2022-11-27T01:09:05.985Z,18.48
2022-11-27T01:11:36.525Z,19.88
2022-11-27T01:14:07.483Z,20.27
2022-11-27T01:16:42.713Z,18.65
2022-11-27T01:19:12.860Z,19.15
2022-11-27T01:21:41.325Z,19.63
2022-11-27T01:24:11.340Z,17.92
2022-11-27T01:26:39.603Z,20.77
2022-11-27T01:29:08.182Z,18.52
2022-11-27T01:31:38.267Z,18.75
2022-11-27T01:34:08.943Z,18.60
2022-11-27T01:36:37.699Z,18.00
2022-11-27T01:39:06.648Z,18.98
2022-11-27T01:41:36.655Z,17.30
2022-11-27T01:44:26.028Z,17.52
2022-11-27T01:46:58.021Z,16.95
2022-11-27T01:49:30.968Z,16.40
2022-11-27T01:52:03.982Z,16.27
2022-11-27T01:54:35.931Z,14.38
2022-11-27T01:57:09.647Z,15.23
2022-11-27T01:59:38.300Z,14.88
2022-11-27T02:02:08.251Z,14.95
2022-11-27T02:04:36.904Z,14.02
2022-11-27T02:07:05.585Z,14.77
2022-11-27T02:09:34.447Z,14.05
2022-11-27T02:12:10.791Z,14.75
2022-11-27T02:14:46.015Z,14.75
2022-11-27T02:17:20.657Z,13.93
2022-11-27T02:20:06.087Z,14.88
2022-11-27T02:22:47.815Z,13.63
2022-11-27T02:25:30.594Z,14.95
2022-11-27T02:28:10.962Z,14.10
2022-11-27T02:30:47.236Z,13.88
2022-11-27T02:33:21.861Z,13.65
2022-11-27T02:35:57.227Z,13.73
2022-11-27T02:38:31.101Z,14.35
2022-11-27T02:41:06.763Z,12.57
2022-11-27T02:43:38.318Z,11.93
2022-11-27T02:46:10.137Z,11.77
2022-11-27T02:48:42.083Z,12.43
2022-11-27T02:51:12.461Z,12.43
2022-11-27T02:53:45.750Z,12.00
2022-11-27T02:56:18.836Z,11.10
2022-11-27T02:58:48.714Z,11.68
2022-11-27T03:01:21.403Z,9.90
2022-11-27T03:03:54.468Z,11.38
2022-11-27T03:06:31.007Z,11.40
2022-11-27T03:09:03.854Z,12.65
2022-11-27T03:11:32.203Z,11.15
2022-11-27T03:14:04.886Z,11.20
2022-11-27T03:16:40.038Z,10.38
2022-11-27T03:19:17.458Z,11.27
2022-11-27T03:21:49.718Z,10.15
2022-11-27T03:24:18.773Z,9.65
2022-11-27T03:26:48.281Z,10.77
2022-11-27T03:29:20.226Z,12.48
2022-11-27T03:31:50.515Z,11.77
2022-11-27T03:34:19.535Z,9.68
2022-11-27T03:36:48.382Z,9.38
2022-11-27T03:39:17.506Z,9.68
2022-11-27T03:41:52.394Z,10.98
2022-11-27T03:44:27.762Z,10.02
2022-11-27T03:47:12.161Z,10.82
2022-11-27T03:49:53.943Z,11.20
2022-11-27T03:52:32.696Z,10.30
2022-11-27T03:55:10.431Z,12.10
2022-11-27T03:57:44.151Z,12.15
2022-11-27T04:00:13.789Z,11.18
2022-11-27T04:02:47.097Z,12.05
2022-11-27T04:05:16.539Z,11.80
2022-11-27T04:07:45.083Z,11.55
2022-11-27T04:10:14.478Z,11.10
2022-11-27T04:12:43.259Z,12.13
2022-11-27T04:15:12.782Z,10.40
2022-11-27T04:17:41.265Z,12.45
2022-11-27T04:20:14.038Z,12.10
2022-11-27T04:22:42.554Z,12.15
2022-11-27T04:25:11.779Z,11.98
2022-11-27T04:27:40.200Z,11.25
2022-11-27T04:30:09.669Z,11.75
2022-11-27T04:32:37.947Z,11.60
2022-11-27T04:35:07.219Z,10.63
2022-11-27T04:37:37.111Z,10.90
2022-11-27T04:40:06.545Z,10.45
2022-11-27T04:42:34.982Z,10.90
2022-11-27T04:45:03.508Z,10.90
2022-11-27T04:47:31.810Z,10.80
2022-11-27T04:50:00.684Z,10.70
2022-11-27T04:52:28.968Z,10.80
2022-11-27T04:55:00.420Z,10.65
2022-11-27T04:57:29.162Z,11.43
2022-11-27T04:59:57.748Z,11.13
2022-11-27T05:02:26.124Z,11.50
2022-11-27T05:04:54.853Z,10.65
2022-11-27T05:07:23.516Z,9.18
2022-11-27T05:09:52.268Z,10.70
2022-11-27T05:12:22.051Z,10.27
2022-11-27T05:14:50.387Z,9.52
2022-11-27T05:17:19.083Z,11.00
2022-11-27T05:19:47.496Z,11.07
2022-11-27T05:22:15.911Z,10.18
2022-11-27T05:24:44.400Z,10.27
2022-11-27T05:27:12.744Z,9.25
2022-11-27T05:29:43.709Z,8.70
2022-11-27T05:32:12.183Z,9.32
2022-11-27T05:34:40.707Z,9.43
2022-11-27T05:37:09.299Z,9.10
2022-11-27T05:39:37.657Z,9.98
2022-11-27T05:42:06.125Z,9.77
2022-11-27T05:44:34.521Z,10.07
2022-11-27T05:47:04.298Z,10.95
2022-11-27T05:49:32.746Z,10.52
2022-11-27T05:52:01.012Z,10.80
2022-11-27T05:54:29.446Z,10.50
2022-11-27T05:56:57.709Z,10.18
2022-11-27T05:59:26.159Z,10.27
2022-11-27T06:01:54.590Z,10.32
2022-11-27T06:04:24.423Z,10.32
2022-11-27T06:06:52.780Z,9.27
2022-11-27T06:09:21.077Z,11.02
2022-11-27T06:11:49.277Z,10.35
2022-11-27T06:14:17.650Z,12.93
2022-11-27T06:16:46.108Z,19.80
2022-11-27T06:19:14.954Z,26.45
2022-11-27T06:21:46.582Z,37.70
2022-11-27T06:24:15.404Z,37.95
2022-11-27T06:26:44.058Z,43.38
2022-11-27T06:29:12.647Z,37.65
2022-11-27T06:31:41.758Z,31.52
2022-11-27T06:34:10.159Z,25.50
2022-11-27T06:36:40.846Z,20.17
2022-11-27T06:39:12.502Z,20.00
2022-11-27T06:41:40.923Z,21.10
2022-11-27T06:44:10.729Z,20.48
2022-11-27T06:46:39.332Z,18.75
2022-11-27T06:49:07.508Z,18.48
2022-11-27T06:51:35.927Z,17.98
2022-11-27T06:54:04.369Z,17.23
2022-11-27T06:56:34.162Z,17.20
2022-11-27T06:59:03.586Z,16.80
2022-11-27T07:01:32.734Z,15.98
2022-11-27T07:04:01.240Z,15.73
2022-11-27T07:06:41.717Z,19.95
2022-11-27T07:09:13.409Z,15.50
2022-11-27T07:11:43.298Z,14.60
2022-11-27T07:14:11.907Z,17.38
2022-11-27T07:16:40.298Z,17.40
2022-11-27T07:19:14.741Z,15.20
2022-11-27T07:21:43.042Z,15.43
2022-11-27T07:24:11.265Z,14.90
2022-11-27T07:26:39.502Z,15.77
2022-11-27T07:29:09.372Z,14.38
2022-11-27T07:31:37.652Z,14.57
2022-11-27T07:34:11.712Z,14.57
2022-11-27T07:36:42.431Z,15.20
2022-11-27T07:39:10.706Z,13.50
2022-11-27T07:41:38.900Z,15.20
2022-11-27T07:44:08.466Z,15.02
2022-11-27T07:46:39.461Z,15.07
2022-11-27T07:49:07.695Z,16.67
2022-11-27T07:51:36.001Z,16.17
2022-11-27T07:54:04.249Z,15.25
2022-11-27T07:56:33.282Z,16.13
2022-11-27T07:59:01.529Z,17.17
2022-11-27T08:01:31.196Z,16.42
2022-11-27T08:03:59.413Z,17.42
2022-11-27T08:06:28.670Z,16.67
2022-11-27T08:08:57.056Z,18.25
2022-11-27T08:11:27.713Z,18.50
2022-11-27T08:13:58.621Z,18.60
2022-11-27T08:16:27.068Z,15.98
2022-11-27T08:18:57.102Z,15.85
2022-11-27T08:21:27.209Z,16.70
2022-11-27T08:23:55.826Z,16.73
2022-11-27T08:26:24.019Z,13.05
2022-11-27T08:28:53.754Z,12.90
2022-11-27T08:31:22.324Z,20.15
2022-11-27T08:33:51.005Z,38.78
2022-11-27T08:36:20.685Z,16.60
2022-11-27T08:38:48.878Z,21.27
2022-11-27T08:41:17.096Z,14.82
2022-11-27T08:43:45.537Z,12.50
2022-11-27T08:46:14.117Z,14.68
2022-11-27T08:48:43.581Z,12.75
2022-11-27T08:51:13.814Z,16.80
2022-11-27T08:53:45.790Z,14.63
2022-11-27T08:56:17.236Z,11.63
2022-11-27T08:58:46.314Z,8.60
2022-11-27T09:01:18.429Z,12.52
2022-11-27T09:03:47.313Z,9.48
2022-11-27T09:06:18.842Z,10.35
2022-11-27T09:08:49.412Z,10.07
2022-11-27T09:11:20.470Z,8.38
2022-11-27T09:13:48.805Z,8.85
2022-11-27T09:16:18.915Z,9.48
2022-11-27T09:18:48.661Z,19.15
2022-11-27T09:21:19.328Z,11.45
2022-11-27T09:23:49.282Z,10.90
2022-11-27T09:26:24.711Z,10.15
2022-11-27T09:28:53.588Z,10.98
2022-11-27T09:31:23.143Z,9.70
2022-11-27T09:33:52.144Z,10.18
2022-11-27T09:36:25.786Z,11.18
2022-11-27T09:38:56.038Z,10.48
2022-11-27T09:41:48.043Z,10.60
2022-11-27T09:44:35.114Z,12.73
2022-11-27T09:47:11.759Z,11.60
2022-11-27T09:49:46.769Z,11.80
2022-11-27T09:52:21.603Z,12.65
2022-11-27T09:54:57.246Z,12.10
2022-11-27T09:57:30.483Z,11.98
2022-11-27T10:00:03.398Z,19.17
2022-11-27T10:02:34.927Z,13.98
2022-11-27T10:05:14.203Z,12.52
2022-11-27T10:21:21.039Z,9.40
2022-11-27T10:23:58.150Z,9.40
2022-11-27T10:26:33.586Z,9.32
2022-11-27T10:29:08.421Z,8.50
2022-11-27T10:31:41.044Z,7.80
2022-11-27T10:34:26.873Z,8.38
2022-11-27T10:37:00.016Z,6.97
2022-11-27T10:39:34.957Z,4.22
2022-11-27T10:42:10.715Z,4.10
2022-11-27T10:44:43.701Z,3.92
2022-11-27T10:47:15.393Z,4.90
2022-11-27T10:49:45.515Z,4.90
2022-11-27T10:52:37.474Z,5.75
2022-11-27T10:55:18.121Z,5.20
2022-11-27T10:57:59.199Z,5.32
2022-11-27T11:03:30.086Z,6.97
2022-11-27T11:06:21.562Z,6.55
2022-11-27T11:09:04.503Z,5.70
2022-11-27T11:11:33.439Z,5.32
2022-11-27T11:14:02.193Z,4.82
2022-11-27T11:16:35.344Z,5.45
2022-11-27T11:19:06.490Z,5.47
2022-11-27T11:21:40.476Z,5.20
2022-11-27T11:24:23.571Z,5.25
2022-11-27T11:29:35.542Z,4.85
2022-11-27T11:32:13.683Z,5.47
2022-11-27T11:34:45.133Z,4.97
2022-11-27T11:50:38.471Z,4.22
2022-11-27T11:53:14.304Z,3.97
2022-11-27T11:55:53.904Z,5.25
2022-11-27T12:04:06.856Z,5.63
2022-11-27T12:06:53.186Z,5.43
2022-11-27T12:09:40.662Z,5.43
2022-11-27T12:12:22.655Z,5.28
2022-11-27T12:14:58.538Z,6.65
2022-11-27T12:20:18.570Z,6.38
2022-11-27T12:23:24.547Z,6.45
2022-11-27T12:26:01.829Z,6.75
2022-11-27T12:29:04.158Z,7.22
2022-11-27T12:31:58.258Z,6.30
2022-11-27T12:34:36.833Z,6.70
2022-11-27T12:37:23.140Z,8.05
2022-11-27T12:40:07.864Z,7.30
2022-11-27T12:42:48.018Z,8.82
2022-11-27T12:45:22.650Z,6.88
2022-11-27T12:47:58.571Z,7.50
2022-11-27T12:50:37.983Z,6.65
2022-11-27T12:53:16.745Z,7.20
2022-11-27T12:55:58.534Z,7.10
2022-11-27T12:58:38.711Z,11.32
2022-11-27T13:01:12.817Z,9.77
2022-11-27T13:03:54.419Z,8.07
2022-11-27T13:06:28.023Z,10.20
2022-11-27T13:09:05.306Z,11.82
2022-11-27T13:11:40.723Z,6.10
2022-11-27T13:14:15.813Z,8.18
2022-11-27T13:16:48.852Z,9.10
2022-11-27T13:19:28.254Z,6.63
2022-11-27T13:21:59.307Z,6.65
2022-11-27T13:24:30.838Z,9.13
2022-11-27T13:27:07.447Z,10.02
2022-11-27T13:29:44.732Z,6.63
2022-11-27T13:32:24.202Z,6.70
2022-11-27T13:34:54.974Z,6.78
2022-11-27T13:37:29.974Z,6.18
2022-11-27T13:40:05.657Z,5.85
2022-11-27T13:46:08.867Z,5.15
2022-11-27T13:57:34.930Z,6.05
2022-11-27T14:00:06.778Z,6.15
2022-11-27T14:02:45.573Z,5.95
2022-11-27T14:05:22.271Z,6.25
2022-11-27T14:07:53.878Z,5.45
2022-11-27T14:10:33.513Z,22.52
2022-11-27T14:13:07.442Z,5.75
2022-11-27T14:15:38.006Z,19.70
2022-11-27T14:29:57.929Z,7.90
2022-11-27T14:32:38.022Z,7.82
2022-11-27T14:35:22.148Z,8.55
2022-11-27T14:37:50.758Z,8.63
2022-11-27T14:43:24.565Z,18.95
2022-11-27T14:45:59.687Z,16.20
2022-11-27T14:48:54.534Z,15.32
2022-11-27T15:09:44.917Z,10.30
2022-11-27T15:41:47.649Z,18.13
2022-11-27T15:44:32.096Z,18.92
2022-11-27T15:49:56.224Z,23.48
2022-11-27T15:52:39.833Z,18.02
2022-11-27T15:55:29.395Z,16.15
2022-11-27T15:58:15.692Z,14.70
2022-11-27T16:01:54.743Z,16.10
2022-11-27T16:13:39.184Z,20.98
2022-11-27T16:16:10.688Z,21.65
2022-11-27T16:18:57.520Z,25.08
2022-11-27T16:26:48.667Z,42.03
2022-11-27T16:29:21.204Z,23.23
2022-11-27T16:31:49.869Z,20.50
2022-11-27T16:37:49.438Z,29.20
2022-11-27T16:40:19.197Z,24.40
2022-11-27T16:42:50.375Z,23.20
2022-11-27T16:45:25.119Z,28.30
2022-11-27T16:48:00.834Z,24.45
2022-11-27T16:50:34.708Z,27.58
2022-11-27T16:53:06.970Z,23.05
2022-11-27T16:55:39.617Z,21.40
2022-11-27T16:58:08.894Z,20.30
2022-11-27T17:00:39.484Z,20.30
2022-11-27T17:03:08.534Z,21.60
2022-11-27T17:05:39.782Z,25.25
2022-11-27T17:08:11.409Z,35.55
2022-11-27T17:10:39.926Z,26.90
2022-11-27T17:13:08.587Z,27.90
2022-11-27T17:15:41.646Z,30.35
2022-11-27T17:18:11.073Z,42.50
2022-11-27T17:20:43.384Z,25.40
2022-11-27T17:23:12.099Z,27.77
2022-11-27T17:25:40.483Z,24.70
2022-11-27T17:28:08.998Z,21.98
2022-11-27T17:30:40.621Z,22.73
2022-11-27T17:33:08.884Z,22.80
2022-11-27T17:35:38.493Z,19.95
2022-11-27T17:38:07.420Z,18.52
2022-11-27T17:40:38.964Z,18.95
2022-11-27T17:43:07.910Z,21.58
2022-11-27T17:45:39.486Z,18.80
2022-11-27T17:48:09.819Z,20.38
2022-11-27T17:50:43.387Z,19.25
2022-11-27T17:53:12.039Z,21.48
2022-11-27T17:55:40.611Z,19.83
2022-11-27T17:58:12.632Z,19.77
2022-11-27T18:00:41.214Z,19.20
2022-11-27T18:03:11.384Z,19.77
2022-11-27T18:05:40.510Z,19.33
2022-11-27T18:08:11.842Z,18.73
2022-11-27T18:10:43.537Z,20.08
2022-11-27T18:13:12.123Z,20.23
2022-11-27T18:15:41.553Z,20.70
2022-11-27T18:18:11.359Z,20.30
2022-11-27T18:20:39.747Z,19.13
2022-11-27T18:23:11.152Z,18.90
2022-11-27T18:28:33.041Z,19.95
2022-11-27T18:31:14.669Z,18.00
2022-11-27T18:33:44.627Z,17.70
2022-11-27T18:36:19.615Z,19.25
2022-11-27T18:38:51.546Z,19.10
2022-11-27T18:41:21.867Z,19.15
2022-11-27T18:43:53.257Z,17.67
2022-11-27T18:46:25.675Z,17.25
2022-11-27T18:49:01.991Z,16.80
2022-11-27T18:51:32.657Z,17.00
2022-11-27T18:54:13.492Z,18.02
2022-11-27T18:56:50.672Z,18.50
2022-11-27T18:59:22.392Z,17.48
2022-11-27T19:02:02.906Z,17.88
2022-11-27T19:04:33.632Z,17.92
2022-11-27T19:07:02.667Z,17.25
2022-11-27T19:09:38.900Z,17.23
2022-11-27T19:12:08.336Z,17.25
2022-11-27T19:14:40.420Z,17.50
2022-11-27T19:17:19.447Z,16.25
2022-11-27T19:19:59.925Z,18.15
2022-11-27T19:22:34.477Z,16.27
2022-11-27T19:25:03.556Z,17.05
2022-11-27T19:27:33.884Z,17.85
2022-11-27T19:30:02.299Z,17.08
2022-11-27T19:32:34.360Z,16.77
2022-11-27T19:35:07.351Z,17.85
2022-11-27T19:37:38.816Z,18.25
2022-11-27T19:40:08.654Z,17.30
2022-11-27T19:42:39.626Z,16.65
2022-11-27T19:45:11.604Z,16.15
2022-11-27T19:47:42.677Z,18.85
2022-11-27T19:50:29.680Z,17.20
2022-11-27T19:53:16.274Z,19.35
2022-11-27T19:55:44.606Z,20.15
2022-11-27T19:58:21.991Z,19.48
2022-11-27T20:01:16.595Z,18.10
2022-11-27T20:03:54.240Z,18.27
2022-11-27T20:06:25.652Z,19.85
2022-11-27T20:08:58.865Z,18.80
2022-11-27T20:11:38.206Z,19.77
2022-11-27T20:14:07.779Z,19.60
2022-11-27T20:16:40.133Z,18.98
2022-11-27T20:19:10.022Z,18.33
2022-11-27T20:21:40.786Z,19.83
2022-11-27T20:24:11.738Z,18.67
2022-11-27T20:26:43.366Z,19.77
2022-11-27T20:29:16.079Z,18.42
2022-11-27T20:31:45.047Z,20.10
2022-11-27T20:34:20.705Z,18.38
2022-11-27T20:36:51.154Z,20.02
2022-11-27T20:39:21.955Z,17.92
2022-11-27T20:41:52.311Z,19.35
2022-11-27T20:44:22.272Z,20.45
2022-11-27T20:46:50.597Z,19.00
2022-11-27T20:49:19.549Z,19.55
2022-11-27T20:51:58.358Z,18.42
2022-11-27T20:54:26.644Z,19.33
2022-11-27T20:56:54.834Z,17.58
2022-11-27T20:59:26.474Z,18.10
2022-11-27T21:01:54.748Z,16.83
2022-11-27T21:04:25.057Z,17.83
2022-11-27T21:06:55.624Z,17.50
2022-11-27T21:09:24.333Z,18.55
2022-11-27T21:11:52.641Z,16.88
2022-11-27T21:14:26.593Z,17.10
2022-11-27T21:16:55.739Z,17.58
2022-11-27T21:19:27.982Z,18.45
2022-11-27T21:21:58.042Z,20.60
2022-11-27T21:24:28.543Z,41.67
2022-11-27T21:27:06.027Z,20.60
2022-11-27T21:29:37.761Z,16.20
2022-11-27T21:32:06.361Z,17.00
2022-11-27T21:34:37.530Z,17.90
2022-11-27T21:37:07.123Z,16.58
2022-11-27T21:39:36.123Z,14.63
2022-11-27T21:42:05.837Z,16.52
2022-11-27T21:44:34.021Z,13.80
2022-11-27T21:47:03.794Z,14.13
2022-11-27T21:49:32.028Z,14.43
2022-11-27T21:52:00.312Z,14.77
2022-11-27T21:54:30.094Z,14.40
2022-11-27T21:56:58.389Z,14.70
2022-11-27T21:59:27.253Z,13.27
2022-11-27T22:01:57.202Z,12.98
2022-11-27T22:04:25.778Z,12.50
2022-11-27T22:06:54.374Z,12.80
2022-11-27T22:09:22.749Z,13.50
2022-11-27T22:11:56.670Z,12.02
2022-11-27T22:14:26.329Z,11.80
2022-11-27T22:16:56.497Z,15.07
2022-11-27T22:19:24.999Z,12.88
2022-11-27T22:21:53.224Z,11.65
2022-11-27T22:24:21.486Z,12.00
2022-11-27T22:26:51.508Z,11.40
2022-11-27T22:29:20.513Z,12.48
2022-11-27T22:31:48.756Z,12.02
2022-11-27T22:34:17.585Z,11.23
2022-11-27T22:36:46.088Z,9.70
2022-11-27T22:39:14.361Z,10.18
2022-11-27T22:41:43.590Z,9.85
2022-11-27T22:44:17.609Z,10.35
2022-11-27T22:46:46.387Z,9.35
2022-11-27T22:49:16.794Z,9.13
2022-11-27T22:51:45.912Z,9.48
2022-11-27T22:54:17.070Z,11.07
2022-11-27T22:56:46.688Z,8.55
2022-11-27T22:59:34.183Z,8.32
2022-11-27T23:02:03.496Z,8.55
2022-11-27T23:04:31.894Z,8.98
2022-11-27T23:07:00.297Z,8.85
2022-11-27T23:09:28.941Z,9.48
2022-11-27T23:11:57.571Z,8.40
2022-11-27T23:14:27.902Z,7.93
2022-11-27T23:16:56.170Z,8.98
2022-11-27T23:19:24.480Z,9.02
2022-11-27T23:21:52.828Z,8.25
2022-11-27T23:24:21.068Z,7.75
2022-11-27T23:26:49.569Z,8.25
2022-11-27T23:29:17.757Z,8.13
2022-11-27T23:31:48.386Z,8.30
2022-11-27T23:34:17.157Z,7.50
2022-11-27T23:36:45.911Z,7.95
2022-11-27T23:39:15.110Z,7.38
2022-11-27T23:41:43.926Z,7.00
2022-11-27T23:44:12.141Z,7.05
2022-11-27T23:46:40.726Z,7.07
2022-11-27T23:49:11.500Z,6.75
2022-11-27T23:51:40.693Z,5.93
2022-11-27T23:54:10.842Z,7.22
2022-11-27T23:56:40.761Z,6.70
2022-11-27T23:59:09.037Z,6.68
